createdAt,value
2019-02-10T00:00:54.742Z,928.83
2019-02-10T00:01:54.667Z,928.86
2019-02-10T00:02:54.645Z,928.87
2019-02-10T00:03:54.584Z,928.86
2019-02-10T00:04:54.531Z,928.88
2019-02-10T00:05:54.498Z,928.93
2019-02-10T00:06:54.450Z,928.91
2019-02-10T00:07:54.429Z,928.94
2019-02-10T00:08:54.370Z,928.97
2019-02-10T00:09:54.315Z,928.95
2019-02-10T00:10:54.292Z,928.93
2019-02-10T00:11:54.246Z,928.93
2019-02-10T00:12:54.180Z,928.92
2019-02-10T00:13:54.157Z,928.92
2019-02-10T00:14:54.081Z,928.92
2019-02-10T00:15:54.063Z,928.94
2019-02-10T00:16:53.999Z,928.95
2019-02-10T00:17:53.973Z,929.01
2019-02-10T00:18:53.912Z,928.99
2019-02-10T00:19:53.862Z,929.01
2019-02-10T00:20:53.811Z,929.02
2019-02-10T00:21:53.796Z,929.01
2019-02-10T00:22:53.733Z,929.06
2019-02-10T00:23:53.695Z,929.11
2019-02-10T00:24:53.631Z,929.13
2019-02-10T00:25:53.598Z,929.17
2019-02-10T00:26:53.555Z,929.15
2019-02-10T00:27:53.503Z,929.16
2019-02-10T00:28:53.479Z,929.20
2019-02-10T00:29:53.436Z,929.18
2019-02-10T00:30:53.372Z,929.18
2019-02-10T00:31:53.315Z,929.23
2019-02-10T00:32:53.300Z,929.27
2019-02-10T00:33:53.244Z,929.21
2019-02-10T00:34:53.207Z,929.18
2019-02-10T00:35:53.159Z,929.21
2019-02-10T00:36:53.090Z,929.20
2019-02-10T00:37:53.045Z,929.18
2019-02-10T00:38:53.019Z,929.17
2019-02-10T00:39:52.958Z,929.13
2019-02-10T00:40:52.917Z,929.09
2019-02-10T00:41:52.876Z,929.07
2019-02-10T00:42:52.819Z,929.07
2019-02-10T00:43:52.793Z,929.04
2019-02-10T00:44:52.740Z,929.07
2019-02-10T00:45:52.691Z,929.09
2019-02-10T00:46:52.639Z,929.05
2019-02-10T00:47:52.594Z,929.06
2019-02-10T00:48:52.558Z,929.04
2019-02-10T00:49:52.515Z,929.02
2019-02-10T00:50:52.470Z,929.01
2019-02-10T00:51:52.433Z,929.01
2019-02-10T00:52:52.396Z,928.98
2019-02-10T00:53:52.350Z,928.98
2019-02-10T00:54:52.276Z,928.99
2019-02-10T00:55:52.235Z,928.99
2019-02-10T00:56:52.207Z,928.95
2019-02-10T00:57:52.141Z,928.97
2019-02-10T00:58:52.107Z,928.98
2019-02-10T00:59:52.062Z,928.91
2019-02-10T01:00:52.005Z,928.95
2019-02-10T01:01:51.987Z,928.91
2019-02-10T01:02:51.934Z,928.92
2019-02-10T01:03:51.889Z,928.91
2019-02-10T01:04:51.855Z,928.94
2019-02-10T01:05:51.812Z,928.93
2019-02-10T01:06:51.744Z,928.91
2019-02-10T01:07:51.715Z,928.94
2019-02-10T01:08:51.665Z,928.93
2019-02-10T01:09:51.617Z,928.96
2019-02-10T01:10:51.565Z,928.94
2019-02-10T01:11:51.526Z,929.00
2019-02-10T01:12:51.462Z,929.01
2019-02-10T01:13:51.428Z,928.98
2019-02-10T01:14:51.379Z,929.01
2019-02-10T01:15:51.326Z,929.00
2019-02-10T01:16:51.288Z,929.00
2019-02-10T01:17:51.236Z,929.01
2019-02-10T01:18:51.217Z,929.05
2019-02-10T01:19:51.166Z,929.02
2019-02-10T01:20:51.121Z,929.02
2019-02-10T01:21:51.062Z,929.02
2019-02-10T01:22:51.036Z,929.01
2019-02-10T01:23:50.975Z,929.06
2019-02-10T01:24:50.924Z,929.04
2019-02-10T01:25:50.875Z,929.06
2019-02-10T01:26:50.860Z,929.05
2019-02-10T01:27:50.795Z,929.09
2019-02-10T01:28:50.750Z,929.03
2019-02-10T01:29:50.720Z,929.06
2019-02-10T01:30:50.656Z,929.09
2019-02-10T01:31:50.603Z,929.11
2019-02-10T01:32:50.578Z,929.14
2019-02-10T01:33:50.532Z,929.15
2019-02-10T01:34:50.475Z,929.17
2019-02-10T01:35:50.422Z,929.15
2019-02-10T01:36:50.385Z,929.14
2019-02-10T01:37:50.352Z,929.17
2019-02-10T01:38:50.294Z,929.13
2019-02-10T01:39:50.256Z,929.12
2019-02-10T01:40:50.196Z,929.12
2019-02-10T01:41:50.170Z,929.11
2019-02-10T01:42:50.125Z,929.11
2019-02-10T01:43:50.080Z,929.05
2019-02-10T01:44:50.042Z,929.12
2019-02-10T01:45:49.980Z,929.11
2019-02-10T01:46:49.944Z,929.09
2019-02-10T01:47:49.899Z,929.10
2019-02-10T01:48:49.866Z,929.12
2019-02-10T01:49:49.801Z,929.14
2019-02-10T01:50:49.763Z,929.18
2019-02-10T01:51:49.706Z,929.15
2019-02-10T01:52:49.672Z,929.11
2019-02-10T01:53:49.635Z,929.11
2019-02-10T01:54:49.563Z,929.09
2019-02-10T01:55:49.518Z,929.06
2019-02-10T01:56:49.495Z,929.06
2019-02-10T01:57:49.435Z,929.07
2019-02-10T01:58:49.401Z,929.07
2019-02-10T01:59:49.348Z,929.12
2019-02-10T02:00:49.302Z,929.08
2019-02-10T02:01:49.272Z,929.11
2019-02-10T02:02:49.222Z,929.11
2019-02-10T02:03:49.181Z,929.15
2019-02-10T02:04:49.117Z,929.12
2019-02-10T02:05:49.084Z,929.17
2019-02-10T02:06:49.050Z,929.16
2019-02-10T02:07:48.994Z,929.17
2019-02-10T02:08:48.929Z,929.17
2019-02-10T02:09:48.891Z,929.16
2019-02-10T02:10:48.848Z,929.18
2019-02-10T02:11:48.812Z,929.16
2019-02-10T02:12:48.747Z,929.18
2019-02-10T02:13:48.714Z,929.17
2019-02-10T02:14:48.685Z,929.17
2019-02-10T02:15:48.618Z,929.17
2019-02-10T02:16:48.574Z,929.18
2019-02-10T02:17:48.551Z,929.17
2019-02-10T02:18:48.482Z,929.19
2019-02-10T02:19:48.449Z,929.12
2019-02-10T02:20:48.384Z,929.13
2019-02-10T02:21:48.339Z,929.12
2019-02-10T02:22:48.320Z,929.14
2019-02-10T02:23:48.257Z,929.11
2019-02-10T02:24:48.203Z,929.18
2019-02-10T02:25:48.176Z,929.13
2019-02-10T02:26:48.120Z,929.17
2019-02-10T02:27:48.093Z,929.16
2019-02-10T02:28:48.029Z,929.19
2019-02-10T02:29:48.004Z,929.18
2019-02-10T02:30:47.957Z,929.20
2019-02-10T02:31:47.904Z,929.20
2019-02-10T02:32:47.858Z,929.22
2019-02-10T02:33:47.796Z,929.19
2019-02-10T02:34:47.749Z,929.17
2019-02-10T02:35:47.722Z,929.18
2019-02-10T02:36:47.687Z,929.13
2019-02-10T02:37:47.613Z,929.13
2019-02-10T02:38:47.567Z,929.13
2019-02-10T02:39:47.521Z,929.10
2019-02-10T02:40:47.495Z,929.05
2019-02-10T02:41:47.433Z,929.05
2019-02-10T02:42:47.405Z,929.06
2019-02-10T02:43:47.366Z,929.05
2019-02-10T02:44:47.301Z,929.06
2019-02-10T02:45:47.279Z,929.06
2019-02-10T02:46:47.203Z,929.04
2019-02-10T02:47:47.165Z,929.07
2019-02-10T02:48:47.115Z,929.10
2019-02-10T02:49:47.089Z,929.14
2019-02-10T02:50:47.045Z,929.09
2019-02-10T02:51:46.976Z,929.19
2019-02-10T02:52:46.941Z,929.16
2019-02-10T02:53:46.917Z,929.21
2019-02-10T02:54:46.870Z,929.23
2019-02-10T02:55:46.795Z,929.23
2019-02-10T02:56:46.755Z,929.28
2019-02-10T02:57:46.714Z,929.35
2019-02-10T02:58:46.676Z,929.35
2019-02-10T02:59:46.649Z,929.38
2019-02-10T03:00:46.566Z,929.36
2019-02-10T03:01:46.551Z,929.40
2019-02-10T03:02:46.487Z,929.40
2019-02-10T03:03:46.432Z,929.43
2019-02-10T03:04:46.392Z,929.36
2019-02-10T03:05:46.338Z,929.43
2019-02-10T03:06:46.340Z,929.40
2019-02-10T03:07:46.276Z,929.42
2019-02-10T03:08:46.206Z,929.40
2019-02-10T03:09:46.164Z,929.36
2019-02-10T03:10:46.123Z,929.36
2019-02-10T03:11:46.107Z,929.39
2019-02-10T03:12:46.039Z,929.34
2019-02-10T03:13:45.995Z,929.30
2019-02-10T03:14:45.961Z,929.32
2019-02-10T03:15:45.905Z,929.36
2019-02-10T03:16:45.861Z,929.33
2019-02-10T03:17:45.804Z,929.31
2019-02-10T03:18:52.990Z,929.37
2019-02-10T03:19:45.723Z,929.38
2019-02-10T03:20:45.664Z,929.37
2019-02-10T03:21:45.639Z,929.38
2019-02-10T03:22:45.565Z,929.31
2019-02-10T03:23:45.521Z,929.36
2019-02-10T03:24:45.494Z,929.33
2019-02-10T03:25:45.429Z,929.26
2019-02-10T03:26:45.405Z,929.28
2019-02-10T03:27:45.356Z,929.26
2019-02-10T03:28:45.306Z,929.29
2019-02-10T03:29:45.267Z,929.28
2019-02-10T03:30:45.223Z,929.26
2019-02-10T03:31:45.156Z,929.23
2019-02-10T03:32:45.140Z,929.16
2019-02-10T03:33:45.065Z,929.24
2019-02-10T03:34:45.051Z,929.22
2019-02-10T03:35:44.974Z,929.22
2019-02-10T03:36:44.953Z,929.19
2019-02-10T03:37:44.882Z,929.18
2019-02-10T03:38:44.836Z,929.22
2019-02-10T03:39:44.809Z,929.17
2019-02-10T03:40:44.745Z,929.17
2019-02-10T03:41:44.718Z,929.21
2019-02-10T03:42:44.654Z,929.23
2019-02-10T03:43:44.634Z,929.18
2019-02-10T03:44:44.589Z,929.22
2019-02-10T03:45:44.536Z,929.20
2019-02-10T03:46:44.499Z,929.20
2019-02-10T03:47:44.446Z,929.21
2019-02-10T03:48:44.409Z,929.15
2019-02-10T03:49:44.364Z,929.14
2019-02-10T03:50:44.289Z,929.13
2019-02-10T03:51:44.276Z,929.09
2019-02-10T03:52:44.221Z,929.17
2019-02-10T03:53:44.183Z,929.21
2019-02-10T03:54:44.130Z,929.18
2019-02-10T03:55:44.073Z,929.22
2019-02-10T03:56:44.042Z,929.15
2019-02-10T03:57:43.989Z,929.10
2019-02-10T03:58:43.926Z,929.07
2019-02-10T03:59:43.910Z,929.06
2019-02-10T04:00:43.859Z,929.08
2019-02-10T04:01:43.808Z,929.06
2019-02-10T04:02:43.761Z,929.08
2019-02-10T04:03:43.709Z,929.13
2019-02-10T04:04:43.651Z,929.14
2019-02-10T04:05:43.625Z,929.16
2019-02-10T04:06:43.587Z,929.12
2019-02-10T04:07:43.513Z,929.12
2019-02-10T04:08:43.497Z,929.06
2019-02-10T04:09:43.445Z,929.09
2019-02-10T04:10:43.378Z,929.00
2019-02-10T04:11:43.358Z,928.99
2019-02-10T04:12:43.304Z,929.04
2019-02-10T04:13:43.270Z,929.04
2019-02-10T04:14:43.196Z,929.08
2019-02-10T04:15:43.176Z,929.08
2019-02-10T04:16:43.133Z,929.15
2019-02-10T04:17:43.082Z,929.13
2019-02-10T04:18:43.050Z,929.17
2019-02-10T04:19:42.979Z,929.13
2019-02-10T04:20:42.936Z,929.08
2019-02-10T04:21:42.896Z,929.02
2019-02-10T04:22:42.840Z,928.99
2019-02-10T04:23:42.803Z,928.97
2019-02-10T04:24:42.788Z,928.92
2019-02-10T04:25:42.711Z,928.93
2019-02-10T04:26:42.648Z,928.90
2019-02-10T04:27:42.601Z,928.91
2019-02-10T04:28:42.584Z,928.95
2019-02-10T04:29:42.550Z,928.98
2019-02-10T04:30:42.471Z,928.91
2019-02-10T04:31:42.430Z,928.90
2019-02-10T04:32:42.400Z,928.88
2019-02-10T04:33:42.346Z,928.79
2019-02-10T04:34:42.301Z,928.77
2019-02-10T04:35:42.236Z,928.67
2019-02-10T04:36:42.210Z,928.69
2019-02-10T04:37:45.914Z,928.65
2019-02-10T04:38:42.098Z,928.64
2019-02-10T04:39:42.071Z,928.65
2019-02-10T04:40:42.026Z,928.65
2019-02-10T04:41:41.984Z,928.62
2019-02-10T04:42:41.927Z,928.60
2019-02-10T04:43:41.878Z,928.61
2019-02-10T04:44:41.851Z,928.58
2019-02-10T04:45:41.790Z,928.62
2019-02-10T04:46:41.744Z,928.65
2019-02-10T04:47:41.694Z,928.62
2019-02-10T04:48:41.659Z,928.63
2019-02-10T04:49:41.622Z,928.63
2019-02-10T04:50:41.558Z,928.64
2019-02-10T04:51:41.510Z,928.67
2019-02-10T04:52:41.457Z,928.62
2019-02-10T04:53:41.414Z,928.56
2019-02-10T04:54:41.396Z,928.51
2019-02-10T04:55:41.351Z,928.47
2019-02-10T04:56:41.276Z,928.46
2019-02-10T04:57:41.241Z,928.42
2019-02-10T04:58:41.184Z,928.40
2019-02-10T04:59:41.148Z,928.38
2019-02-10T05:00:41.122Z,928.40
2019-02-10T05:01:41.059Z,928.40
2019-02-10T05:02:41.007Z,928.37
2019-02-10T05:03:40.953Z,928.41
2019-02-10T05:04:40.910Z,928.38
2019-02-10T05:05:40.883Z,928.36
2019-02-10T05:06:40.836Z,928.37
2019-02-10T05:07:40.790Z,928.38
2019-02-10T05:08:40.725Z,928.34
2019-02-10T05:09:40.712Z,928.34
2019-02-10T05:10:40.671Z,928.32
2019-02-10T05:11:40.587Z,928.33
2019-02-10T05:12:40.542Z,928.31
2019-02-10T05:13:40.527Z,928.29
2019-02-10T05:14:40.450Z,928.27
2019-02-10T05:15:40.416Z,928.30
2019-02-10T05:16:40.361Z,928.27
2019-02-10T05:17:40.339Z,928.28
2019-02-10T05:18:40.298Z,928.24
2019-02-10T05:19:40.249Z,928.24
2019-02-10T05:20:40.206Z,928.22
2019-02-10T05:21:40.148Z,928.23
2019-02-10T05:22:40.084Z,928.20
2019-02-10T05:23:40.040Z,928.24
2019-02-10T05:24:40.008Z,928.13
2019-02-10T05:25:39.953Z,928.20
2019-02-10T05:26:39.926Z,928.19
2019-02-10T05:27:39.875Z,928.20
2019-02-10T05:28:39.839Z,928.17
2019-02-10T05:29:39.767Z,928.22
2019-02-10T05:30:39.719Z,928.21
2019-02-10T05:31:39.698Z,928.23
2019-02-10T05:32:39.658Z,928.21
2019-02-10T05:33:39.599Z,928.23
2019-02-10T05:34:39.566Z,928.22
2019-02-10T05:35:39.505Z,928.24
2019-02-10T05:36:39.457Z,928.21
2019-02-10T05:37:39.427Z,928.19
2019-02-10T05:38:39.361Z,928.19
2019-02-10T05:39:39.331Z,928.17
2019-02-10T05:40:39.260Z,928.18
2019-02-10T05:41:39.232Z,928.16
2019-02-10T05:42:39.194Z,928.13
2019-02-10T05:43:39.123Z,928.19
2019-02-10T05:44:39.076Z,928.23
2019-02-10T05:45:39.047Z,928.24
2019-02-10T05:46:38.986Z,928.25
2019-02-10T05:47:38.970Z,928.26
2019-02-10T05:48:38.903Z,928.27
2019-02-10T05:49:38.866Z,928.28
2019-02-10T05:50:38.828Z,928.28
2019-02-10T05:51:38.764Z,928.26
2019-02-10T05:52:38.717Z,928.30
2019-02-10T05:53:38.663Z,928.28
2019-02-10T05:54:40.680Z,928.28
2019-02-10T05:55:38.584Z,928.27
2019-02-10T05:56:38.536Z,928.22
2019-02-10T05:57:38.499Z,928.24
2019-02-10T05:58:38.461Z,928.22
2019-02-10T05:59:38.408Z,928.24
2019-02-10T06:00:38.342Z,928.22
2019-02-10T06:01:38.305Z,928.22
2019-02-10T06:02:38.282Z,928.21
2019-02-10T06:03:38.231Z,928.19
2019-02-10T06:04:38.174Z,928.25
2019-02-10T06:05:38.139Z,928.22
2019-02-10T06:06:38.068Z,928.24
2019-02-10T06:07:38.023Z,928.24
2019-02-10T06:08:37.937Z,928.28
2019-02-10T06:09:37.929Z,928.26
2019-02-10T06:10:37.883Z,928.27
2019-02-10T06:11:37.838Z,928.34
2019-02-10T06:12:37.799Z,928.32
2019-02-10T06:13:37.745Z,928.28
2019-02-10T06:14:37.720Z,928.28
2019-02-10T06:15:37.673Z,928.32
2019-02-10T06:16:37.615Z,928.34
2019-02-10T06:17:37.591Z,928.34
2019-02-10T06:18:37.543Z,928.38
2019-02-10T06:19:37.470Z,928.34
2019-02-10T06:20:37.424Z,928.38
2019-02-10T06:21:37.390Z,928.30
2019-02-10T06:22:37.352Z,928.25
2019-02-10T06:23:37.306Z,928.25
2019-02-10T06:24:37.248Z,928.19
2019-02-10T06:25:37.203Z,928.20
2019-02-10T06:26:37.162Z,928.23
2019-02-10T06:27:37.116Z,928.18
2019-02-10T06:28:37.087Z,928.22
2019-02-10T06:29:37.038Z,928.18
2019-02-10T06:30:36.992Z,928.21
2019-02-10T06:31:36.949Z,928.19
2019-02-10T06:32:36.903Z,928.18
2019-02-10T06:33:36.857Z,928.16
2019-02-10T06:34:36.781Z,928.20
2019-02-10T06:35:36.745Z,928.17
2019-02-10T06:36:36.709Z,928.15
2019-02-10T06:37:36.674Z,928.15
2019-02-10T06:38:36.605Z,928.13
2019-02-10T06:39:36.578Z,928.12
2019-02-10T06:40:36.534Z,928.12
2019-02-10T06:41:36.488Z,928.14
2019-02-10T06:42:36.416Z,928.17
2019-02-10T06:43:36.378Z,928.15
2019-02-10T06:44:36.339Z,928.14
2019-02-10T06:45:36.293Z,928.15
2019-02-10T06:46:36.228Z,928.10
2019-02-10T06:47:36.182Z,928.10
2019-02-10T06:48:36.162Z,928.08
2019-02-10T06:49:36.090Z,928.09
2019-02-10T06:50:36.055Z,928.10
2019-02-10T06:51:36.024Z,928.09
2019-02-10T06:52:35.971Z,928.08
2019-02-10T06:53:35.925Z,928.10
2019-02-10T06:54:35.867Z,928.09
2019-02-10T06:55:35.813Z,928.10
2019-02-10T06:56:35.786Z,928.12
2019-02-10T06:57:35.740Z,928.10
2019-02-10T06:58:35.675Z,928.08
2019-02-10T06:59:35.629Z,928.07
2019-02-10T07:00:35.582Z,928.10
2019-02-10T07:01:35.563Z,928.09
2019-02-10T07:02:35.498Z,928.09
2019-02-10T07:03:35.475Z,928.04
2019-02-10T07:04:35.424Z,928.06
2019-02-10T07:05:35.360Z,928.03
2019-02-10T07:06:35.306Z,928.01
2019-02-10T07:07:35.279Z,928.02
2019-02-10T07:08:35.247Z,928.01
2019-02-10T07:09:35.194Z,928.04
2019-02-10T07:10:35.128Z,928.02
2019-02-10T07:11:35.102Z,928.02
2019-02-10T07:12:35.056Z,928.04
2019-02-10T07:13:35.002Z,928.05
2019-02-10T07:14:34.959Z,928.03
2019-02-10T07:15:34.903Z,928.04
2019-02-10T07:16:34.852Z,928.02
2019-02-10T07:17:34.818Z,928.00
2019-02-10T07:18:34.783Z,927.97
2019-02-10T07:19:34.725Z,928.01
2019-02-10T07:20:34.660Z,927.97
2019-02-10T07:21:34.633Z,927.99
2019-02-10T07:22:34.598Z,927.97
2019-02-10T07:23:34.523Z,927.97
2019-02-10T07:24:34.493Z,927.98
2019-02-10T07:25:34.448Z,927.93
2019-02-10T07:26:34.402Z,927.97
2019-02-10T07:27:34.363Z,928.00
2019-02-10T07:28:34.291Z,927.99
2019-02-10T07:29:34.246Z,928.04
2019-02-10T07:30:34.219Z,928.04
2019-02-10T07:31:34.179Z,928.00
2019-02-10T07:32:34.127Z,928.00
2019-02-10T07:33:34.077Z,927.98
2019-02-10T07:34:34.016Z,927.97
2019-02-10T07:35:33.969Z,927.99
2019-02-10T07:36:33.933Z,928.01
2019-02-10T07:37:33.896Z,927.94
2019-02-10T07:38:38.731Z,927.96
2019-02-10T07:39:33.815Z,927.96
2019-02-10T07:40:33.757Z,927.97
2019-02-10T07:41:33.712Z,928.00
2019-02-10T07:42:33.653Z,928.03
2019-02-10T07:43:33.631Z,928.02
2019-02-10T07:44:33.572Z,927.98
2019-02-10T07:45:33.529Z,927.97
2019-02-10T07:46:33.473Z,927.94
2019-02-10T07:47:33.425Z,927.97
2019-02-10T07:48:33.388Z,927.97
2019-02-10T07:49:33.323Z,927.96
2019-02-10T07:50:33.307Z,927.99
2019-02-10T07:51:33.257Z,927.98
2019-02-10T07:52:33.185Z,928.00
2019-02-10T07:53:33.159Z,927.99
2019-02-10T07:54:33.091Z,927.95
2019-02-10T07:55:33.053Z,927.92
2019-02-10T07:56:33.019Z,927.94
2019-02-10T07:57:32.968Z,927.96
2019-02-10T07:58:32.918Z,928.00
2019-02-10T07:59:32.871Z,928.02
2019-02-10T08:00:32.834Z,928.08
2019-02-10T08:01:32.797Z,928.10
2019-02-10T08:02:32.721Z,928.13
2019-02-10T08:03:32.704Z,928.12
2019-02-10T08:04:32.660Z,928.13
2019-02-10T08:05:32.603Z,928.14
2019-02-10T08:06:32.536Z,928.14
2019-02-10T08:07:32.517Z,928.14
2019-02-10T08:08:32.446Z,928.17
2019-02-10T08:09:32.425Z,928.17
2019-02-10T08:10:32.363Z,928.15
2019-02-10T08:11:32.306Z,928.14
2019-02-10T08:12:32.289Z,928.19
2019-02-10T08:13:33.216Z,928.17
2019-02-10T08:14:32.200Z,928.19
2019-02-10T08:15:32.122Z,928.18
2019-02-10T08:16:32.086Z,928.21
2019-02-10T08:17:32.029Z,928.20
2019-02-10T08:18:32.001Z,928.26
2019-02-10T08:19:31.966Z,928.29
2019-02-10T08:20:31.919Z,928.27
2019-02-10T08:21:31.851Z,928.33
2019-02-10T08:22:31.827Z,928.31
2019-02-10T08:23:31.762Z,928.35
2019-02-10T08:24:31.713Z,928.29
2019-02-10T08:25:31.679Z,928.30
2019-02-10T08:26:31.613Z,928.30
2019-02-10T08:27:31.598Z,928.29
2019-02-10T08:28:31.524Z,928.36
2019-02-10T08:29:31.486Z,928.30
2019-02-10T08:30:31.447Z,928.29
2019-02-10T08:31:31.396Z,928.29
2019-02-10T08:32:31.362Z,928.31
2019-02-10T08:33:31.340Z,928.27
2019-02-10T08:34:31.273Z,928.34
2019-02-10T08:35:31.216Z,928.28
2019-02-10T08:36:31.161Z,928.29
2019-02-10T08:37:31.112Z,928.25
2019-02-10T08:38:31.070Z,928.30
2019-02-10T08:39:31.032Z,928.28
2019-02-10T08:40:30.966Z,928.33
2019-02-10T08:41:30.946Z,928.33
2019-02-10T08:42:30.881Z,928.38
2019-02-10T08:43:30.828Z,928.39
2019-02-10T08:44:30.808Z,928.40
2019-02-10T08:45:30.746Z,928.40
2019-02-10T08:46:30.714Z,928.44
2019-02-10T08:47:33.762Z,928.40
2019-02-10T08:48:30.622Z,928.37
2019-02-10T08:49:30.563Z,928.32
2019-02-10T08:50:30.511Z,928.33
2019-02-10T08:51:30.487Z,928.36
2019-02-10T08:52:30.411Z,928.34
2019-02-10T08:53:30.365Z,928.36
2019-02-10T08:54:30.329Z,928.44
2019-02-10T08:55:30.299Z,928.41
2019-02-10T08:56:30.253Z,928.48
2019-02-10T08:57:30.187Z,928.45
2019-02-10T08:58:30.144Z,928.50
2019-02-10T08:59:30.109Z,928.43
2019-02-10T09:00:30.061Z,928.45
2019-02-10T09:01:30.027Z,928.46
2019-02-10T09:02:29.970Z,928.44
2019-02-10T09:03:29.922Z,928.40
2019-02-10T09:04:29.857Z,928.44
2019-02-10T09:05:29.816Z,928.42
2019-02-10T09:06:29.795Z,928.45
2019-02-10T09:07:29.721Z,928.46
2019-02-10T09:08:29.699Z,928.50
2019-02-10T09:09:29.659Z,928.54
2019-02-10T09:10:29.581Z,928.51
2019-02-10T09:11:29.567Z,928.57
2019-02-10T09:12:29.489Z,928.54
2019-02-10T09:13:29.464Z,928.60
2019-02-10T09:14:29.404Z,928.58
2019-02-10T09:15:29.350Z,928.64
2019-02-10T09:16:29.315Z,928.65
2019-02-10T09:17:29.288Z,928.71
2019-02-10T09:18:29.239Z,928.73
2019-02-10T09:19:29.166Z,928.75
2019-02-10T09:20:29.140Z,928.77
2019-02-10T09:21:29.100Z,928.81
2019-02-10T09:22:29.029Z,928.82
2019-02-10T09:23:28.985Z,928.80
2019-02-10T09:24:28.965Z,928.83
2019-02-10T09:25:28.893Z,928.77
2019-02-10T09:26:28.848Z,928.82
2019-02-10T09:27:28.810Z,928.86
2019-02-10T09:28:28.816Z,928.84
2019-02-10T09:29:28.745Z,928.91
2019-02-10T09:30:28.687Z,928.93
2019-02-10T09:31:28.650Z,928.98
2019-02-10T09:32:28.599Z,929.01
2019-02-10T09:33:28.562Z,929.04
2019-02-10T09:34:28.501Z,929.04
2019-02-10T09:35:28.473Z,929.08
2019-02-10T09:36:28.399Z,929.06
2019-02-10T09:37:28.376Z,929.07
2019-02-10T09:38:28.311Z,929.06
2019-02-10T09:39:28.288Z,929.07
2019-02-10T09:40:28.224Z,929.06
2019-02-10T09:41:28.200Z,929.11
2019-02-10T09:42:28.160Z,929.08
2019-02-10T09:43:28.102Z,929.14
2019-02-10T09:44:28.046Z,929.15
2019-02-10T09:45:28.002Z,929.12
2019-02-10T09:46:27.979Z,929.18
2019-02-10T09:47:27.926Z,929.25
2019-02-10T09:48:27.881Z,929.28
2019-02-10T09:49:27.846Z,929.31
2019-02-10T09:50:27.802Z,929.33
2019-02-10T09:51:27.766Z,929.22
2019-02-10T09:52:27.706Z,929.15
2019-02-10T09:53:27.653Z,929.10
2019-02-10T09:54:27.628Z,929.14
2019-02-10T09:55:27.602Z,929.31
2019-02-10T09:56:27.520Z,929.42
2019-02-10T09:57:27.513Z,929.46
2019-02-10T09:58:27.466Z,929.54
2019-02-10T09:59:27.401Z,929.53
2019-02-10T10:00:27.375Z,929.57
2019-02-10T10:01:27.305Z,929.53
2019-02-10T10:02:27.281Z,929.56
2019-02-10T10:03:27.239Z,929.61
2019-02-10T10:04:27.206Z,929.65
2019-02-10T10:05:27.146Z,929.61
2019-02-10T10:06:27.092Z,929.57
2019-02-10T10:07:27.073Z,929.56
2019-02-10T10:08:27.029Z,929.50
2019-02-10T10:09:26.968Z,929.57
2019-02-10T10:10:26.927Z,929.59
2019-02-10T10:11:26.914Z,929.62
2019-02-10T10:12:26.857Z,929.55
2019-02-10T10:13:26.814Z,929.53
2019-02-10T10:14:30.921Z,929.43
2019-02-10T10:15:26.729Z,929.55
2019-02-10T10:16:26.696Z,929.54
2019-02-10T10:17:26.653Z,929.67
2019-02-10T10:18:26.605Z,929.68
2019-02-10T10:19:26.565Z,929.75
2019-02-10T10:20:26.527Z,929.81
2019-02-10T10:21:26.485Z,929.93
2019-02-10T10:22:26.445Z,930.04
2019-02-10T10:23:26.427Z,930.14
2019-02-10T10:24:26.379Z,930.17
2019-02-10T10:25:26.349Z,930.18
2019-02-10T10:26:26.301Z,930.18
2019-02-10T10:27:26.252Z,930.21
2019-02-10T10:28:26.241Z,930.18
2019-02-10T10:29:26.185Z,930.24
2019-02-10T10:30:26.140Z,930.26
2019-02-10T10:31:26.114Z,930.27
2019-02-10T10:32:26.086Z,930.28
2019-02-10T10:33:26.038Z,930.21
2019-02-10T10:34:25.993Z,930.25
2019-02-10T10:35:25.986Z,930.26
2019-02-10T10:36:25.931Z,930.43
2019-02-10T10:37:25.916Z,930.60
2019-02-10T10:38:25.852Z,930.72
2019-02-10T10:39:27.480Z,930.75
2019-02-10T10:40:25.797Z,930.89
2019-02-10T10:41:25.777Z,931.04
2019-02-10T10:42:25.715Z,931.51
2019-02-10T10:43:25.690Z,932.21
2019-02-10T10:44:25.669Z,932.19
2019-02-10T10:45:25.645Z,931.44
2019-02-10T10:46:25.603Z,931.50
2019-02-10T10:47:25.561Z,931.63
2019-02-10T10:48:25.517Z,931.64
2019-02-10T10:49:25.485Z,931.69
2019-02-10T10:50:25.456Z,931.80
2019-02-10T10:51:25.421Z,931.53
2019-02-10T10:52:25.398Z,931.38
2019-02-10T10:53:25.379Z,931.47
2019-02-10T10:54:25.389Z,931.63
2019-02-10T10:55:25.295Z,930.49
2019-02-10T10:56:25.283Z,929.63
2019-02-10T10:57:25.286Z,929.46
2019-02-10T10:58:25.201Z,929.41
2019-02-10T10:59:25.191Z,929.39
2019-02-10T11:00:25.137Z,929.43
2019-02-10T11:01:25.662Z,929.38
2019-02-10T11:02:25.082Z,929.36
2019-02-10T11:03:25.057Z,929.38
2019-02-10T11:04:25.011Z,929.32
2019-02-10T11:05:24.969Z,929.33
2019-02-10T11:06:24.965Z,929.34
2019-02-10T11:07:24.908Z,929.31
2019-02-10T11:08:24.892Z,929.32
2019-02-10T11:09:24.849Z,929.28
2019-02-10T11:10:24.800Z,929.29
2019-02-10T11:11:24.784Z,929.27
2019-02-10T11:12:24.739Z,929.31
2019-02-10T11:13:24.711Z,929.29
2019-02-10T11:14:24.656Z,929.25
2019-02-10T11:15:24.635Z,929.30
2019-02-10T11:16:24.581Z,929.25
2019-02-10T11:17:24.552Z,929.27
2019-02-10T11:18:24.525Z,929.26
2019-02-10T11:19:24.486Z,929.26
2019-02-10T11:20:24.436Z,929.31
2019-02-10T11:21:24.417Z,929.28
2019-02-10T11:22:24.358Z,929.28
2019-02-10T11:23:24.298Z,929.27
2019-02-10T11:24:28.677Z,929.27
2019-02-10T11:25:24.219Z,929.26
2019-02-10T11:26:24.189Z,929.25
2019-02-10T11:27:24.162Z,929.25
2019-02-10T11:28:24.121Z,929.25
2019-02-10T11:29:24.087Z,929.28
2019-02-10T11:30:24.030Z,929.28
2019-02-10T11:31:24.010Z,929.28
2019-02-10T11:32:23.937Z,929.27
2019-02-10T11:33:23.896Z,929.27
2019-02-10T11:34:23.864Z,929.20
2019-02-10T11:35:23.815Z,929.20
2019-02-10T11:36:23.795Z,929.22
2019-02-10T11:37:26.941Z,929.24
2019-02-10T11:38:23.720Z,929.22
2019-02-10T11:39:23.672Z,929.27
2019-02-10T11:40:23.629Z,929.27
2019-02-10T11:41:23.569Z,929.28
2019-02-10T11:42:23.566Z,929.28
2019-02-10T11:43:23.506Z,929.28
2019-02-10T11:44:23.491Z,929.25
2019-02-10T11:45:23.413Z,929.25
2019-02-10T11:46:23.362Z,929.18
2019-02-10T11:47:23.321Z,929.19
2019-02-10T11:48:23.288Z,929.17
2019-02-10T11:49:23.256Z,929.20
2019-02-10T11:50:23.214Z,929.23
2019-02-10T11:51:23.184Z,929.31
2019-02-10T11:52:23.109Z,929.33
2019-02-10T11:53:23.067Z,929.31
2019-02-10T11:54:23.037Z,929.34
2019-02-10T11:55:22.986Z,929.36
2019-02-10T11:56:22.943Z,929.36
2019-02-10T11:57:22.901Z,929.37
2019-02-10T11:58:22.886Z,929.35
2019-02-10T11:59:22.816Z,929.37
2019-02-10T12:00:22.794Z,929.32
2019-02-10T12:01:22.760Z,929.38
2019-02-10T12:02:22.690Z,929.39
2019-02-10T12:03:22.669Z,929.39
2019-02-10T12:04:22.638Z,929.37
2019-02-10T12:05:22.571Z,929.33
2019-02-10T12:06:22.534Z,929.37
2019-02-10T12:07:22.502Z,929.30
2019-02-10T12:08:22.450Z,929.35
2019-02-10T12:09:22.408Z,929.34
2019-02-10T12:10:22.386Z,929.30
2019-02-10T12:11:22.346Z,929.28
2019-02-10T12:12:22.299Z,929.28
2019-02-10T12:13:22.252Z,929.22
2019-02-10T12:14:22.208Z,929.22
2019-02-10T12:15:22.182Z,929.23
2019-02-10T12:16:22.126Z,929.22
2019-02-10T12:17:22.083Z,929.21
2019-02-10T12:18:22.052Z,929.22
2019-02-10T12:19:21.998Z,929.23
2019-02-10T12:20:21.964Z,929.20
2019-02-10T12:21:21.922Z,929.20
2019-02-10T12:22:21.881Z,929.18
2019-02-10T12:23:21.815Z,929.18
2019-02-10T12:24:21.800Z,929.17
2019-02-10T12:25:21.728Z,929.15
2019-02-10T12:26:21.711Z,929.08
2019-02-10T12:27:21.652Z,929.10
2019-02-10T12:28:21.629Z,929.11